Richards, MO (64778)

7:18 AM CDT on August 05, 2015 (GMT -0500)
DEAN'S WEATHER STATION | | Change Station
CLOSE
Current Station
Personal Weather Station
Location: PRESCOTT, KS
Elevation: 909 ft
Nearby Weather Stations
Active Advisory: Severe Thunderstorm Watch

Elev 909 ft 38.08 °N, 94.77 °W | Updated 19 seconds ago

Overcast
Overcast
69.5 °F
Feels Like 69.5 °F
N
6.9
Wind Variable Wind from NE
Gusts 6.9 mph

Today
High -- | Low -- °F
--% Chance of Precip.
Yesterday
High -- | Low -- °F
Precip. -- in
6:24 AM 8:23 PM
Waning Gibbous, 68% visible
Pressure 29.95 in
Visibility 7.0 miles
Clouds Scattered Clouds 1300 ft
Mostly Cloudy 4600 ft
Overcast 5000 ft
Dew Point 68 °F
Humidity 96%
Rainfall 0.02 in
Snow Depth Not available.
UV 0 out of 12
Pollen 4.60 out of 12
Air Quality Not available.
Flu Activity Not available.
METAR KPTS 051215Z AUTO 36007KT 7SM +RA SCT013 BKN046 OVC050 22/22 A2995 RMK AO2 LTG DSNT ALQS P0001 T02170218

More Conditions Fewer Conditions

Pressure 29.95 in
Visibility 7.0 miles
Clouds Scattered Clouds 1300 ft
Mostly Cloudy 4600 ft
Overcast 5000 ft
Dew Point 68 °F
Humidity 96%
Rainfall 0.02 in
Snow Depth Not available.
UV 0 out of 12
Pollen 4.60 out of 12
Air Quality Not available.
Flu Activity Not available.
METAR KPTS 051215Z AUTO 36007KT 7SM +RA SCT013 BKN046 OVC050 22/22 A2995 RMK AO2 LTG DSNT ALQS P0001 T02170218

More Conditions Fewer Conditions

10-Day Weather Forecast

×

Almanac

Astronomy

Aug. 05, 2015 Rise Set
Actual Time
Civil Twilight
Nautical Twilight
Astronomical Twilight
Moon
Length of Visible Light
Length of Day
Tomorrow will be .
, % of the Moon is Illuminated

Today's Extremes

State Highs State Lows

Community

WunderPhotos

Upload Photos

1,844,169 photos uploaded!

WunderBlogs® & News

Nearby

Air Quality

  Air Quality AQ Index Pollutant
Not available.

Snow Depth

Station Depth Elevation

Earthquake Activity

City Distance Mag. Time & Date
Minimum magnitude displayed is 2.5.

Coastal Water Temperatures

Place Temperature

Stations

Nearby Weather Stations

Station Location Temp. Windchill Dew Point Humidity Wind Precip. Elev Updated Type
                   
Severe Thunderstorm Watch
Statement as of 7:03 AM CDT on August 05, 2015

Severe Thunderstorm Watch 472 remains in effect until 1100 am CDT

MO
. Missouri counties included are

Barton Jasper McDonald
Newton Vernon